Time;durP1;ratioP1;P1;durP2;ratioP2;P2;SDS_P1;SDS_P2;PMS_P1;PMS_P2;Temp;Humidity;BMP_temperature;BMP_pressure;BME280_temperature;BME280_humidity;BME280_pressure;Samples;Min_cycle;Max_cycle;Signal;HPM_P1;HPM_P2
2022/11/08 00:02:08;;;;;;;14.57;1.20;;;26.70;53.70;;;;;;5043361;28;21546;-62
2022/11/08 00:04:34;;;;;;;6.20;1.00;;;26.70;53.70;;;;;;5039470;28;20462;-58
2022/11/08 00:15:16;;;;;;;6.25;0.98;;;26.20;54.20;;;;;;5046549;28;20646;-58
2022/11/08 00:17:42;;;;;;;10.32;0.98;;;26.30;54.40;;;;;;5040047;28;20079;-58
2022/11/08 00:20:09;;;;;;;4.65;2.00;;;26.20;54.60;;;;;;5030381;28;20078;-56
2022/11/08 00:22:35;;;;;;;14.50;2.67;;;26.00;55.00;;;;;;5031357;28;20086;-57
2022/11/08 00:25:02;;;;;;;7.18;1.20;;;25.90;55.20;;;;;;5030082;28;20175;-59
2022/11/08 00:27:28;;;;;;;9.38;1.33;;;25.80;55.60;;;;;;5048552;28;20080;-58
2022/11/08 00:29:55;;;;;;;9.38;1.13;;;25.70;55.80;;;;;;5049301;28;20081;-63
2022/11/08 00:32:23;;;;;;;5.93;1.10;;;25.60;55.80;;;;;;5048812;28;20077;-59
2022/11/08 00:34:50;;;;;;;10.27;1.73;;;25.40;56.20;;;;;;5049221;28;20128;-57
2022/11/08 00:37:18;;;;;;;7.05;1.15;;;25.40;56.50;;;;;;5049143;28;20517;-59
2022/11/08 00:39:45;;;;;;;11.73;2.15;;;25.30;56.50;;;;;;5045942;28;20085;-59
2022/11/08 00:42:12;;;;;;;7.18;1.30;;;25.30;56.50;;;;;;5029801;28;20112;-57
2022/11/08 00:44:39;;;;;;;23.70;2.83;;;25.20;56.50;;;;;;5048973;28;20551;-61
2022/11/08 00:47:05;;;;;;;8.77;1.27;;;25.10;56.80;;;;;;5045410;28;20085;-60
2022/11/08 00:49:32;;;;;;;10.52;1.45;;;25.10;56.70;;;;;;5049018;28;20097;-63
2022/11/08 00:51:59;;;;;;;9.68;1.58;;;25.00;56.60;;;;;;5064326;28;20522;-59
2022/11/08 00:54:25;;;;;;;9.13;1.70;;;24.90;56.80;;;;;;5048771;28;20086;-63
2022/11/08 00:56:52;;;;;;;17.80;1.80;;;24.80;57.10;;;;;;5048872;28;20073;-61
2022/11/08 00:59:19;;;;;;;9.77;1.50;;;24.80;57.20;;;;;;5034130;28;20124;-62
2022/11/08 01:01:49;;;;;;;14.18;1.45;;;24.70;57.40;;;;;;5028517;28;20117;-59
2022/11/08 01:04:17;;;;;;;14.55;2.80;;;24.60;57.50;;;;;;5043411;28;20176;-59
2022/11/08 01:06:44;;;;;;;14.93;1.88;;;24.60;58.00;;;;;;5034542;28;20974;-59
2022/11/08 01:09:11;;;;;;;9.07;1.58;;;24.50;58.00;;;;;;5029273;28;20082;-62
2022/11/08 01:11:39;;;;;;;15.27;1.45;;;24.50;58.20;;;;;;5041424;28;20062;-58
2022/11/08 01:14:05;;;;;;;12.07;1.33;;;24.50;58.30;;;;;;5042627;28;20114;-59
2022/11/08 01:16:32;;;;;;;8.32;1.48;;;24.40;58.50;;;;;;5030386;28;20470;-63
2022/11/08 01:19:00;;;;;;;5.68;1.10;;;24.30;58.60;;;;;;5028427;28;20073;-59
2022/11/08 01:21:28;;;;;;;12.90;1.42;;;24.30;58.70;;;;;;5029199;28;20074;-60
2022/11/08 01:23:55;;;;;;;16.65;5.05;;;24.20;59.00;;;;;;5028856;28;20116;-60
2022/11/08 01:26:24;;;;;;;9.27;2.47;;;24.20;59.30;;;;;;5030730;28;20081;-58
2022/11/08 01:28:51;;;;;;;7.65;1.40;;;24.10;59.00;;;;;;5045704;28;20576;-60
2022/11/08 01:31:23;;;;;;;9.27;1.83;;;24.10;59.10;;;;;;5045933;28;20077;-63
2022/11/08 01:33:50;;;;;;;36.58;15.38;;;24.10;59.10;;;;;;5047232;28;20085;-65
2022/11/08 01:36:20;;;;;;;4.28;2.80;;;24.00;59.20;;;;;;5041015;28;20089;-64
2022/11/08 01:38:46;;;;;;;9.27;3.22;;;24.00;59.40;;;;;;5033087;28;20074;-62
2022/11/08 01:41:14;;;;;;;4.97;1.73;;;24.00;59.50;;;;;;5029414;28;20073;-63
2022/11/08 01:43:44;;;;;;;7.45;1.30;;;23.90;59.50;;;;;;5028468;28;20163;-63
2022/11/08 01:46:35;;;;;;;11.57;3.00;;;23.90;59.60;;;;;;5026672;28;20081;-66
2022/11/08 01:49:24;;;;;;;14.55;4.68;;;23.90;59.80;;;;;;5026732;28;20085;-63
2022/11/08 01:51:53;;;;;;;14.38;2.10;;;23.80;59.80;;;;;;5038150;28;20077;-64
2022/11/08 01:54:30;;;;;;;15.77;5.18;;;23.80;60.00;;;;;;5044233;28;20069;-62
2022/11/08 01:56:59;;;;;;;14.43;3.40;;;23.80;60.10;;;;;;5060245;28;20426;-59
2022/11/08 01:59:26;;;;;;;12.70;2.00;;;23.70;60.50;;;;;;5042560;28;20069;-58
2022/11/08 02:01:53;;;;;;;11.57;1.35;;;23.70;60.90;;;;;;5028914;28;20167;-62
2022/11/08 02:04:21;;;;;;;11.60;2.00;;;23.70;60.90;;;;;;5030926;28;20090;-63
2022/11/08 02:06:49;;;;;;;7.07;1.58;;;23.70;61.10;;;;;;5047485;28;20065;-56
2022/11/08 02:09:17;;;;;;;10.73;2.25;;;23.70;61.10;;;;;;5048743;28;20070;-63
2022/11/08 02:11:45;;;;;;;9.10;1.80;;;23.70;61.50;;;;;;5048653;28;20073;-65
2022/11/08 02:14:12;;;;;;;4.47;2.20;;;23.70;61.30;;;;;;5048459;28;20100;-61
2022/11/08 02:16:38;;;;;;;11.07;2.67;;;23.60;61.70;;;;;;5048495;28;20073;-62
2022/11/08 02:19:15;;;;;;;8.40;1.52;;;23.70;62.00;;;;;;5032978;28;20078;-61
2022/11/08 02:21:46;;;;;;;6.55;1.30;;;23.60;62.30;;;;;;5037902;28;20081;-60
2022/11/08 02:24:13;;;;;;;6.97;1.17;;;23.60;62.90;;;;;;5044983;28;20089;-63
2022/11/08 02:26:40;;;;;;;9.20;1.20;;;23.60;63.40;;;;;;5044609;28;20073;-62
2022/11/08 02:29:30;;;;;;;11.65;1.15;;;23.50;63.60;;;;;;5029939;28;20123;-62
2022/11/08 02:31:57;;;;;;;6.85;1.50;;;23.50;63.80;;;;;;5030674;28;20066;-62
2022/11/08 02:34:44;;;;;;;5.25;1.40;;;23.50;63.90;;;;;;5050998;28;20217;-63
2022/11/08 02:37:15;;;;;;;11.18;1.60;;;23.40;63.80;;;;;;5051854;28;20179;-62
2022/11/08 02:39:42;;;;;;;8.75;1.52;;;23.40;64.20;;;;;;5052228;28;20077;-63
2022/11/08 02:42:15;;;;;;;15.43;3.55;;;23.40;64.30;;;;;;5052375;28;20069;-62
2022/11/08 02:44:42;;;;;;;13.90;4.63;;;23.40;64.30;;;;;;5051566;28;20120;-61
2022/11/08 02:47:08;;;;;;;10.15;3.60;;;23.40;64.60;;;;;;5040879;28;20554;-57
2022/11/08 02:49:35;;;;;;;9.95;1.92;;;23.30;65.60;;;;;;5033847;28;20082;-57
2022/11/08 02:52:01;;;;;;;8.77;1.77;;;23.30;64.90;;;;;;5050495;28;20112;-60
2022/11/08 02:54:28;;;;;;;11.32;2.30;;;23.30;65.00;;;;;;5049064;28;20098;-58
2022/11/08 02:56:54;;;;;;;7.75;2.22;;;23.20;65.20;;;;;;5032630;28;20157;-63
2022/11/08 02:59:20;;;;;;;9.15;1.73;;;23.20;65.60;;;;;;5037169;28;20074;-62
2022/11/08 03:01:47;;;;;;;7.80;2.03;;;23.10;65.60;;;;;;5034937;28;20109;-61
2022/11/08 03:04:13;;;;;;;8.85;1.60;;;23.20;65.80;;;;;;5033597;28;20089;-63
2022/11/08 03:06:40;;;;;;;6.72;1.30;;;23.10;65.60;;;;;;5038109;28;20066;-62
2022/11/08 03:09:06;;;;;;;14.95;2.05;;;23.10;66.00;;;;;;5033735;28;20074;-57
2022/11/08 03:11:33;;;;;;;10.30;1.35;;;23.00;65.90;;;;;;5045121;28;20084;-59
2022/11/08 03:13:59;;;;;;;5.57;1.80;;;23.00;65.90;;;;;;5051090;28;20093;-62
2022/11/08 03:16:26;;;;;;;5.82;1.40;;;23.00;65.80;;;;;;5052205;28;20066;-62
2022/11/08 03:18:52;;;;;;;9.07;1.80;;;22.90;65.70;;;;;;5051392;28;20148;-61
2022/11/08 03:21:18;;;;;;;7.57;1.58;;;23.00;65.80;;;;;;5037615;28;20082;-63
2022/11/08 03:23:45;;;;;;;20.10;1.70;;;22.90;65.70;;;;;;5032594;28;20085;-61
2022/11/08 03:26:11;;;;;;;8.10;1.98;;;22.80;65.60;;;;;;5032889;28;20094;-63
2022/11/08 03:28:38;;;;;;;10.70;2.70;;;22.80;65.70;;;;;;5038771;28;20066;-62
2022/11/08 03:31:04;;;;;;;16.60;3.75;;;22.80;65.80;;;;;;5051137;28;20567;-62
2022/11/08 03:33:30;;;;;;;10.55;1.70;;;22.80;65.80;;;;;;5051745;28;20074;-62
2022/11/08 03:35:57;;;;;;;9.77;1.67;;;22.80;65.90;;;;;;5051144;28;20128;-62
2022/11/08 03:38:23;;;;;;;8.18;1.52;;;22.80;66.70;;;;;;5051494;28;20074;-62
2022/11/08 03:40:50;;;;;;;9.13;1.52;;;22.60;66.00;;;;;;5066310;28;20073;-62
2022/11/08 03:43:16;;;;;;;10.20;1.60;;;22.60;66.20;;;;;;5051134;28;20152;-64
2022/11/08 03:45:44;;;;;;;10.93;1.50;;;22.60;66.10;;;;;;5050323;28;20146;-62
2022/11/08 03:48:10;;;;;;;7.03;2.28;;;22.60;66.30;;;;;;5050831;28;20411;-62
2022/11/08 03:50:37;;;;;;;21.17;8.98;;;22.50;66.30;;;;;;5051175;28;20065;-62
2022/11/08 03:53:03;;;;;;;24.98;9.45;;;22.50;66.50;;;;;;5050705;28;20149;-57
2022/11/08 03:55:30;;;;;;;31.13;10.07;;;22.40;66.70;;;;;;5050638;28;20080;-62
2022/11/08 03:57:56;;;;;;;17.38;9.15;;;22.40;66.90;;;;;;5050396;28;20127;-62
2022/11/08 04:00:26;;;;;;;19.25;9.60;;;22.20;67.10;;;;;;5050531;28;20481;-60
2022/11/08 04:02:54;;;;;;;16.60;8.30;;;22.20;67.20;;;;;;5050799;28;20174;-57
2022/11/08 04:05:20;;;;;;;17.10;7.10;;;22.20;67.50;;;;;;5045485;28;20451;-62
2022/11/08 04:07:47;;;;;;;12.68;5.85;;;22.10;67.70;;;;;;5031538;28;20078;-58
2022/11/08 04:10:13;;;;;;;14.20;5.63;;;22.10;68.00;;;;;;5049126;28;20082;-62
2022/11/08 04:15:28;;;;;;;13.57;6.03;;;22.00;68.70;;;;;;5033376;28;20100;-63
2022/11/08 04:23:31;;;;;;;16.05;5.82;;;22.00;69.80;;;;;;5031623;28;20085;-63
2022/11/08 04:26:00;;;;;;;12.75;4.90;;;21.80;69.90;;;;;;5031890;28;20094;-64
2022/11/08 04:28:29;;;;;;;15.70;4.20;;;21.80;70.30;;;;;;5033115;28;20070;-58
2022/11/08 04:31:04;;;;;;;13.98;3.88;;;21.80;70.80;;;;;;5044632;28;20109;-63
2022/11/08 04:33:31;;;;;;;7.18;2.63;;;21.80;71.30;;;;;;5051293;28;20491;-61
2022/11/08 04:36:02;;;;;;;7.70;2.13;;;21.70;71.70;;;;;;5050711;28;20081;-64
2022/11/08 04:38:29;;;;;;;6.40;2.38;;;21.70;72.30;;;;;;5050546;28;20481;-64
2022/11/08 04:41:01;;;;;;;13.50;1.50;;;21.60;73.70;;;;;;5050390;28;20231;-61
2022/11/08 04:43:28;;;;;;;3.88;1.25;;;21.50;73.50;;;;;;5050526;28;20074;-63
2022/11/08 04:46:00;;;;;;;7.72;1.10;;;21.50;74.00;;;;;;5050385;28;20235;-62
2022/11/08 04:48:26;;;;;;;6.53;1.25;;;21.50;74.50;;;;;;5050273;28;20559;-59
2022/11/08 04:50:52;;;;;;;8.10;3.50;;;21.50;74.60;;;;;;5050454;28;20550;-60
2022/11/08 04:53:19;;;;;;;9.50;5.22;;;21.50;74.70;;;;;;5066176;28;20066;-63
2022/11/08 04:55:45;;;;;;;13.43;4.78;;;21.40;75.70;;;;;;5050127;28;20074;-63
2022/11/08 04:58:12;;;;;;;10.30;2.50;;;21.30;75.30;;;;;;5050708;28;20166;-60
2022/11/08 05:00:38;;;;;;;8.15;1.70;;;21.20;76.00;;;;;;5048662;28;20117;-63
2022/11/08 05:03:05;;;;;;;7.57;1.60;;;21.20;76.20;;;;;;5043194;28;20111;-62
2022/11/08 05:05:31;;;;;;;9.50;1.35;;;21.10;76.50;;;;;;5054253;28;20147;-62
2022/11/08 05:07:58;;;;;;;8.30;1.13;;;21.00;77.10;;;;;;5031567;28;20074;-60
2022/11/08 05:10:24;;;;;;;6.57;1.15;;;21.00;77.10;;;;;;5041221;28;20074;-62
2022/11/08 05:12:55;;;;;;;12.93;1.17;;;21.00;77.60;;;;;;5049846;28;20152;-62
2022/11/08 05:15:22;;;;;;;7.47;1.05;;;21.00;77.70;;;;;;5049896;28;20097;-57
2022/11/08 05:17:48;;;;;;;8.25;1.58;;;20.90;77.70;;;;;;5048511;28;20078;-64
2022/11/08 05:25:45;;;;;;;4.90;1.00;;;20.80;78.40;;;;;;5049949;28;20116;-63
2022/11/08 05:28:14;;;;;;;6.10;1.00;;;20.80;78.80;;;;;;5050322;28;20113;-62
2022/11/08 05:30:41;;;;;;;3.15;1.08;;;20.70;79.10;;;;;;5049942;28;20139;-60
2022/11/08 05:33:07;;;;;;;2.13;0.88;;;20.70;78.90;;;;;;5050722;28;20511;-58
2022/11/08 05:35:34;;;;;;;8.40;1.20;;;20.70;78.90;;;;;;5042964;28;20070;-63
2022/11/08 05:38:01;;;;;;;5.68;0.93;;;20.60;79.00;;;;;;5030061;28;20074;-58
2022/11/08 05:40:27;;;;;;;8.90;1.90;;;20.60;78.80;;;;;;5031988;28;20553;-63
2022/11/08 05:42:54;;;;;;;4.47;1.40;;;20.70;79.00;;;;;;5030425;28;20153;-62
2022/11/08 05:45:21;;;;;;;12.23;1.55;;;20.70;79.00;;;;;;5029567;28;20200;-60
2022/11/08 05:47:48;;;;;;;8.88;1.90;;;20.60;79.20;;;;;;5036492;28;20077;-63
2022/11/08 05:50:14;;;;;;;8.00;1.77;;;20.60;79.20;;;;;;5047768;28;20153;-57
2022/11/08 05:52:41;;;;;;;4.03;1.77;;;20.60;79.60;;;;;;5048823;28;20070;-59
2022/11/08 05:55:08;;;;;;;6.55;2.28;;;20.60;79.50;;;;;;5049016;28;20069;-58
2022/11/08 05:57:34;;;;;;;10.35;3.10;;;20.50;79.30;;;;;;5031891;28;20449;-61
2022/11/08 06:00:00;;;;;;;11.43;3.63;;;20.50;79.50;;;;;;5029831;28;20136;-63
2022/11/08 06:02:28;;;;;;;8.63;3.17;;;20.50;79.80;;;;;;5046854;28;20081;-57
2022/11/08 06:04:54;;;;;;;12.10;3.05;;;20.50;79.90;;;;;;5048780;28;20586;-63
2022/11/08 06:07:21;;;;;;;10.13;3.55;;;20.50;80.00;;;;;;5049173;28;20407;-62
2022/11/08 06:09:47;;;;;;;11.00;3.15;;;20.40;80.00;;;;;;5046597;28;20149;-59
2022/11/08 06:12:13;;;;;;;7.90;2.65;;;20.40;80.00;;;;;;5047294;28;20113;-64
2022/11/08 06:14:40;;;;;;;6.15;2.47;;;20.40;80.40;;;;;;5053066;28;20129;-60
2022/11/08 06:17:06;;;;;;;5.90;1.95;;;20.30;80.70;;;;;;5052472;28;20093;-65
2022/11/08 06:19:32;;;;;;;8.40;1.48;;;20.10;81.10;;;;;;5052708;28;20074;-62
2022/11/08 06:21:59;;;;;;;10.20;1.70;;;20.10;81.60;;;;;;5042587;28;20151;-62
2022/11/08 06:24:25;;;;;;;8.35;1.20;;;20.00;82.30;;;;;;5051482;28;20089;-63
2022/11/08 06:26:52;;;;;;;7.15;1.50;;;19.90;82.30;;;;;;5040610;28;20115;-60
2022/11/08 06:29:18;;;;;;;4.47;0.80;;;19.90;82.40;;;;;;5060375;28;20527;-62
2022/11/08 06:31:44;;;;;;;4.50;1.30;;;19.90;82.10;;;;;;5033358;28;20232;-61
2022/11/08 06:34:11;;;;;;;9.88;1.48;;;19.80;82.50;;;;;;5038717;28;20069;-58
2022/11/08 06:36:37;;;;;;;5.68;1.38;;;19.80;82.70;;;;;;5051893;28;20065;-58
2022/11/08 06:39:04;;;;;;;8.13;2.72;;;19.80;82.70;;;;;;5049809;28;20081;-59
2022/11/08 06:41:31;;;;;;;18.33;11.93;;;19.80;82.70;;;;;;5051035;28;20080;-59
2022/11/08 06:43:58;;;;;;;5.65;1.40;;;19.80;82.90;;;;;;5052351;28;20527;-60
2022/11/08 06:46:25;;;;;;;3.75;1.20;;;19.80;82.90;;;;;;5051891;28;20094;-57
2022/11/08 06:48:52;;;;;;;3.53;1.10;;;19.70;83.10;;;;;;5041811;28;20124;-59
2022/11/08 06:51:18;;;;;;;4.35;1.10;;;19.70;83.50;;;;;;5043032;28;20546;-63
2022/11/08 06:53:45;;;;;;;5.63;1.17;;;19.60;83.30;;;;;;5045061;28;20096;-60
2022/11/08 06:56:11;;;;;;;1.98;1.20;;;19.70;83.30;;;;;;5041883;28;20225;-60
2022/11/08 06:58:38;;;;;;;5.13;1.30;;;19.60;83.30;;;;;;5041698;28;20077;-62
2022/11/08 07:01:07;;;;;;;1.70;0.80;;;19.60;83.50;;;;;;5042177;28;20114;-66
2022/11/08 07:03:34;;;;;;;6.05;1.25;;;19.60;83.20;;;;;;5042982;28;20074;-60
2022/11/08 07:06:04;;;;;;;4.00;0.85;;;19.60;83.50;;;;;;5040672;28;20086;-61
2022/11/08 07:08:32;;;;;;;2.67;1.05;;;19.50;83.40;;;;;;5041799;28;20073;-60
2022/11/08 07:10:58;;;;;;;2.97;1.00;;;19.60;83.30;;;;;;5043366;28;20078;-63
2022/11/08 07:13:25;;;;;;;3.25;1.25;;;19.70;83.00;;;;;;5042823;28;20108;-60
2022/11/08 07:15:51;;;;;;;4.85;1.35;;;19.70;82.60;;;;;;5041356;28;20116;-62
2022/11/08 07:18:19;;;;;;;4.85;1.80;;;19.60;82.60;;;;;;5042694;28;20081;-60
2022/11/08 07:20:45;;;;;;;2.67;1.70;;;19.60;82.40;;;;;;5040615;28;20074;-64
2022/11/08 07:23:12;;;;;;;3.33;2.30;;;19.60;82.30;;;;;;5039934;28;20090;-61
2022/11/08 07:25:39;;;;;;;6.03;2.58;;;19.60;82.60;;;;;;5045163;28;20503;-61
2022/11/08 07:28:12;;;;;;;7.43;3.35;;;19.60;82.40;;;;;;5035717;28;20073;-59
2022/11/08 07:30:38;;;;;;;10.10;2.60;;;19.60;82.50;;;;;;5033018;28;20180;-64
2022/11/08 07:33:04;;;;;;;8.13;2.58;;;19.60;82.40;;;;;;5032715;28;20069;-60
2022/11/08 07:35:31;;;;;;;12.88;2.90;;;19.60;82.90;;;;;;5043472;28;20139;-63
2022/11/08 07:37:57;;;;;;;7.13;3.53;;;19.50;83.10;;;;;;5051918;28;20073;-59
2022/11/08 07:40:24;;;;;;;12.73;3.08;;;19.50;83.30;;;;;;5034282;28;20131;-59
2022/11/08 07:42:51;;;;;;;9.52;4.10;;;19.50;84.10;;;;;;5032167;28;20439;-63
2022/11/08 07:45:17;;;;;;;7.82;3.70;;;19.40;84.30;;;;;;5041006;28;20085;-60
2022/11/08 07:47:44;;;;;;;13.48;4.60;;;19.40;84.80;;;;;;5041300;28;20419;-64
2022/11/08 07:50:10;;;;;;;14.85;4.05;;;19.30;85.00;;;;;;5031932;28;20156;-62
2022/11/08 07:52:37;;;;;;;13.38;3.78;;;19.20;85.40;;;;;;5041152;28;20119;-60
2022/11/08 07:55:03;;;;;;;12.43;4.55;;;19.10;85.60;;;;;;5041956;28;20104;-63
2022/11/08 07:57:30;;;;;;;14.98;4.05;;;19.10;86.00;;;;;;5032716;28;20089;-59
2022/11/08 07:59:56;;;;;;;11.60;4.57;;;19.10;86.60;;;;;;5049804;28;20501;-58
2022/11/08 08:02:22;;;;;;;19.05;4.60;;;19.10;86.40;;;;;;5049811;28;20100;-60
2022/11/08 08:04:49;;;;;;;13.57;4.22;;;19.00;86.80;;;;;;5051722;28;20144;-60
2022/11/08 08:07:15;;;;;;;13.95;4.70;;;19.10;87.20;;;;;;5049579;28;20081;-59
2022/11/08 08:09:42;;;;;;;10.85;4.47;;;19.10;87.20;;;;;;5051027;28;21104;-60
2022/11/08 08:12:08;;;;;;;22.63;5.10;;;19.10;86.40;;;;;;5050826;28;20143;-61
2022/11/08 08:14:35;;;;;;;15.23;5.10;;;19.00;86.50;;;;;;5050467;28;20096;-65
2022/11/08 08:17:02;;;;;;;26.75;6.05;;;19.00;88.00;;;;;;5050818;28;20117;-59
2022/11/08 08:19:28;;;;;;;23.20;4.82;;;18.90;87.50;;;;;;5043034;28;20074;-64
2022/11/08 08:21:55;;;;;;;15.60;4.65;;;18.90;87.40;;;;;;5039159;28;20090;-62
2022/11/08 08:24:21;;;;;;;20.05;5.07;;;18.90;87.50;;;;;;5047351;28;20069;-63
2022/11/08 08:26:47;;;;;;;29.67;4.88;;;18.90;87.60;;;;;;5039675;28;20127;-64
2022/11/08 08:29:14;;;;;;;23.10;4.63;;;18.80;87.70;;;;;;5033128;28;20073;-63
2022/11/08 08:31:40;;;;;;;16.52;3.95;;;18.80;87.90;;;;;;5041786;28;20066;-62
2022/11/08 08:34:06;;;;;;;22.75;4.63;;;18.80;87.90;;;;;;5051002;28;20116;-58
2022/11/08 08:36:33;;;;;;;22.45;4.70;;;18.80;87.70;;;;;;5050399;28;20088;-63
2022/11/08 08:38:59;;;;;;;32.00;6.13;;;18.70;87.80;;;;;;5031470;28;20077;-60
2022/11/08 08:41:25;;;;;;;27.42;6.05;;;18.70;88.20;;;;;;5034191;28;20437;-57
2022/11/08 08:43:52;;;;;;;41.40;6.75;;;18.60;88.40;;;;;;5043815;28;20571;-58
2022/11/08 08:46:19;;;;;;;44.22;7.75;;;18.60;88.70;;;;;;5050147;28;20098;-60
2022/11/08 08:48:45;;;;;;;50.20;8.23;;;18.60;89.00;;;;;;5032767;28;20128;-62
2022/11/08 08:51:12;;;;;;;29.17;7.70;;;18.60;89.10;;;;;;5030853;28;20082;-59
2022/11/08 08:53:38;;;;;;;45.95;7.32;;;18.60;89.10;;;;;;5031592;28;20081;-59
2022/11/08 08:56:06;;;;;;;45.58;8.02;;;18.60;89.40;;;;;;5030539;28;20434;-65
2022/11/08 08:58:33;;;;;;;38.55;8.15;;;18.60;90.00;;;;;;5031587;28;20085;-58
2022/11/08 09:01:09;;;;;;;41.53;8.52;;;18.50;90.20;;;;;;5030548;28;20160;-57
2022/11/08 09:03:36;;;;;;;44.33;8.68;;;18.50;90.30;;;;;;5032330;28;20527;-64
2022/11/08 09:06:02;;;;;;;51.78;17.48;;;18.50;90.50;;;;;;5051006;28;20555;-56
2022/11/08 09:08:29;;;;;;;51.13;12.82;;;18.50;90.50;;;;;;5050585;28;20077;-58
2022/11/08 09:10:58;;;;;;;38.85;14.43;;;18.50;90.10;;;;;;5050353;28;20073;-61
2022/11/08 09:13:25;;;;;;;38.00;13.57;;;18.50;90.10;;;;;;5050238;28;20074;-63
2022/11/08 09:15:53;;;;;;;25.80;14.70;;;18.50;90.30;;;;;;5049344;28;20093;-59
2022/11/08 09:18:19;;;;;;;32.50;13.02;;;18.30;90.60;;;;;;5049048;28;20089;-61
2022/11/08 09:20:46;;;;;;;42.63;13.60;;;18.20;90.90;;;;;;5046467;28;20073;-60
2022/11/08 09:23:15;;;;;;;25.33;13.57;;;18.20;90.90;;;;;;5049166;28;20123;-59
2022/11/08 09:25:41;;;;;;;23.98;6.88;;;18.20;90.90;;;;;;5048895;28;20095;-66
2022/11/08 09:28:08;;;;;;;31.83;6.97;;;18.10;91.00;;;;;;5049109;28;20131;-58
2022/11/08 09:30:35;;;;;;;30.13;8.05;;;18.10;90.80;;;;;;5048968;28;20077;-59
2022/11/08 09:33:01;;;;;;;26.23;7.32;;;18.00;91.10;;;;;;5049345;28;20070;-57
2022/11/08 09:35:29;;;;;;;28.60;7.10;;;18.10;91.20;;;;;;5049615;28;20081;-61
2022/11/08 09:37:55;;;;;;;36.83;7.05;;;18.10;91.30;;;;;;5048837;28;20480;-60
2022/11/08 09:40:32;;;;;;;27.35;7.63;;;18.20;91.20;;;;;;5038036;28;20211;-59
2022/11/08 09:43:34;;;;;;;26.85;6.93;;;18.20;91.20;;;;;;5047944;28;20080;-62
2022/11/08 09:46:01;;;;;;;28.80;7.60;;;18.10;91.40;;;;;;5029962;28;20094;-59
2022/11/08 09:48:35;;;;;;;37.47;8.10;;;18.10;91.50;;;;;;5030936;28;20074;-56
2022/11/08 09:51:17;;;;;;;28.63;7.32;;;17.90;91.60;;;;;;5029910;28;20127;-64
2022/11/08 09:53:56;;;;;;;27.33;7.40;;;17.80;91.90;;;;;;5047717;28;20108;-57
2022/11/08 09:56:31;;;;;;;24.80;6.50;;;17.70;92.30;;;;;;5048662;28;20131;-57
2022/11/08 09:59:12;;;;;;;30.25;6.80;;;17.80;92.40;;;;;;5033668;28;20502;-60
2022/11/08 10:01:39;;;;;;;28.38;6.32;;;17.80;92.10;;;;;;5030388;28;20108;-61
2022/11/08 10:04:14;;;;;;;28.88;6.97;;;17.80;92.20;;;;;;5029907;28;20192;-60
2022/11/08 10:07:00;;;;;;;19.85;5.70;;;17.80;92.40;;;;;;5031218;28;20081;-61
2022/11/08 10:09:48;;;;;;;24.38;6.10;;;17.80;92.40;;;;;;5040729;28;20081;-59
2022/11/08 10:12:37;;;;;;;26.63;6.38;;;17.80;92.60;;;;;;5030366;28;20523;-60
2022/11/08 10:15:37;;;;;;;22.17;5.82;;;17.90;92.60;;;;;;5011584;28;20109;-60
2022/11/08 10:18:26;;;;;;;22.13;5.90;;;17.90;92.70;;;;;;5049106;28;20538;-61
2022/11/08 10:21:04;;;;;;;18.90;5.65;;;17.90;92.70;;;;;;5044658;28;20082;-63
2022/11/08 10:24:22;;;;;;;20.45;5.47;;;17.80;92.90;;;;;;5048071;28;20164;-60
2022/11/08 10:26:51;;;;;;;26.43;6.33;;;17.80;93.10;;;;;;5035310;28;20450;-61
2022/11/08 10:29:26;;;;;;;28.40;6.50;;;17.90;93.00;;;;;;5049144;28;20542;-61
2022/11/08 10:32:04;;;;;;;25.98;6.40;;;17.80;93.00;;;;;;5048757;28;20550;-58
2022/11/08 10:34:40;;;;;;;20.48;5.82;;;17.80;93.00;;;;;;5048775;28;20070;-63
2022/11/08 10:37:12;;;;;;;21.33;5.97;;;17.80;93.30;;;;;;5048632;28;20140;-61
2022/11/08 10:39:45;;;;;;;19.05;5.50;;;17.70;93.30;;;;;;5043103;28;20078;-59
2022/11/08 10:42:20;;;;;;;17.40;6.10;;;17.70;93.40;;;;;;5030293;28;20554;-64
2022/11/08 10:44:47;;;;;;;23.55;6.07;;;17.60;93.30;;;;;;5035881;28;20104;-60
2022/11/08 10:47:25;;;;;;;17.17;6.25;;;17.70;93.50;;;;;;5038102;28;20116;-57
2022/11/08 10:49:53;;;;;;;19.58;5.40;;;17.70;93.40;;;;;;5041384;28;20119;-67
2022/11/08 10:52:35;;;;;;;15.18;4.93;;;17.50;93.70;;;;;;5048698;28;20073;-61
2022/11/08 10:55:06;;;;;;;20.25;5.22;;;17.40;94.40;;;;;;5050248;28;20092;-58
2022/11/08 10:57:37;;;;;;;19.10;5.80;;;17.30;94.50;;;;;;5052062;28;20534;-60
2022/11/08 11:00:19;;;;;;;15.02;5.80;;;17.30;94.70;;;;;;5052933;28;20077;-60
2022/11/08 11:02:55;;;;;;;14.82;5.47;;;17.30;94.50;;;;;;5052062;28;20074;-64
2022/11/08 11:05:41;;;;;;;27.10;6.00;;;17.30;94.90;;;;;;5052292;28;20089;-59
2022/11/08 11:08:07;;;;;;;23.00;6.03;;;17.30;94.90;;;;;;5033644;28;20145;-59
2022/11/08 11:10:39;;;;;;;16.13;5.43;;;17.20;95.00;;;;;;5034626;28;20074;-58
2022/11/08 11:13:08;;;;;;;17.15;5.20;;;17.20;95.20;;;;;;5033570;28;20074;-61
2022/11/08 11:15:44;;;;;;;16.42;4.70;;;17.20;95.60;;;;;;5035752;28;20092;-63
2022/11/08 11:18:28;;;;;;;18.83;5.40;;;17.20;95.60;;;;;;5032294;28;20073;-60
2022/11/08 11:21:01;;;;;;;12.00;4.97;;;17.20;95.80;;;;;;5043959;28;20117;-59
2022/11/08 11:23:36;;;;;;;18.45;4.22;;;17.20;96.10;;;;;;5032316;28;20076;-59
2022/11/08 11:26:04;;;;;;;12.68;4.80;;;17.40;96.10;;;;;;5066146;28;20081;-57
2022/11/08 11:28:31;;;;;;;15.38;4.97;;;17.40;95.80;;;;;;5051331;28;20535;-57
2022/11/08 11:31:15;;;;;;;14.25;4.70;;;17.30;96.00;;;;;;5067487;28;20199;-64
2022/11/08 11:33:45;;;;;;;17.17;5.00;;;17.20;96.50;;;;;;5051216;28;20077;-59
2022/11/08 11:36:19;;;;;;;20.60;4.75;;;17.20;96.50;;;;;;5051696;28;20081;-58
2022/11/08 11:39:20;;;;;;;14.68;4.28;;;17.30;96.50;;;;;;5031766;28;20078;-60
2022/11/08 11:42:16;;;;;;;16.83;4.60;;;17.30;96.20;;;;;;5034521;28;20966;-62
2022/11/08 11:45:05;;;;;;;10.63;4.53;;;17.30;96.30;;;;;;4970514;28;20218;-56
2022/11/08 11:47:56;;;;;;;14.18;4.15;;;17.40;96.40;;;;;;4970149;28;20098;-61
2022/11/08 11:50:33;;;;;;;22.20;4.13;;;17.20;96.60;;;;;;4969596;28;20079;-59
2022/11/08 11:53:06;;;;;;;11.32;4.35;;;17.30;96.70;;;;;;4970434;28;20468;-59
2022/11/08 11:55:58;;;;;;;15.75;4.38;;;17.20;96.80;;;;;;4970137;28;20095;-59
2022/11/08 11:58:49;;;;;;;34.97;5.68;;;17.10;97.20;;;;;;4970028;28;20079;-61
2022/11/08 12:01:54;;;;;;;29.70;4.68;;;17.10;97.30;;;;;;4970587;28;20540;-57
2022/11/08 12:04:57;;;;;;;18.30;4.78;;;17.20;97.50;;;;;;4968035;28;20084;-56
2022/11/08 12:07:31;;;;;;;15.35;5.25;;;17.20;97.60;;;;;;4969718;28;20103;-58
2022/11/08 12:10:03;;;;;;;16.65;5.13;;;17.30;97.70;;;;;;4970258;28;20607;-61
2022/11/08 12:12:32;;;;;;;15.25;4.60;;;17.40;97.70;;;;;;4970152;28;20129;-60
2022/11/08 12:15:28;;;;;;;17.80;4.22;;;17.50;97.40;;;;;;4970292;28;20103;-60
2022/11/08 12:18:21;;;;;;;14.23;5.03;;;17.50;97.20;;;;;;4961784;28;20126;-63
2022/11/08 12:20:58;;;;;;;13.02;5.10;;;17.50;97.20;;;;;;4996205;28;20180;-57
2022/11/08 12:23:58;;;;;;;16.83;4.97;;;17.50;97.20;;;;;;5050035;28;20105;-57
2022/11/08 12:26:51;;;;;;;17.92;5.22;;;17.60;97.50;;;;;;5050591;28;20093;-57
2022/11/08 12:29:23;;;;;;;17.15;5.53;;;17.60;97.70;;;;;;5031648;28;20427;-61
2022/11/08 12:31:49;;;;;;;18.80;7.07;;;17.60;97.90;;;;;;5032015;28;20074;-56
2022/11/08 12:34:18;;;;;;;;;;;17.50;98.20;;;;;;5049500;28;20519;-60
2022/11/08 12:37:08;;;;;;;23.38;7.15;;;17.50;98.70;;;;;;5050421;28;19961;-61
2022/11/08 12:40:24;;;;;;;26.85;8.07;;;17.50;99.10;;;;;;5023440;28;20093;-57
2022/11/08 12:42:59;;;;;;;24.58;8.55;;;17.60;99.60;;;;;;5026253;28;20523;-63
2022/11/08 12:45:34;;;;;;;26.15;9.63;;;17.50;99.90;;;;;;5050151;28;20162;-62
2022/11/08 12:48:19;;;;;;;36.10;10.38;;;17.60;99.90;;;;;;5037662;28;20065;-64
2022/11/08 12:50:51;;;;;;;22.80;10.20;;;17.60;99.90;;;;;;5030574;28;20086;-60
2022/11/08 12:53:17;;;;;;;25.67;10.02;;;17.60;99.90;;;;;;5030653;28;20078;-62
2022/11/08 12:55:47;;;;;;;90.50;11.40;;;17.60;99.90;;;;;;5030888;28;20078;-62
2022/11/08 12:58:25;;;;;;;35.47;10.10;;;17.60;99.90;;;;;;5031410;28;20078;-58
2022/11/08 13:00:57;;;;;;;29.38;9.73;;;17.60;99.90;;;;;;5049737;28;20231;-58
2022/11/08 13:03:48;;;;;;;24.55;9.93;;;17.50;99.90;;;;;;5049263;28;20080;-63
2022/11/08 13:06:38;;;;;;;22.63;8.90;;;17.50;99.90;;;;;;5049803;28;20150;-60
2022/11/08 13:09:04;;;;;;;21.88;7.68;;;17.50;99.90;;;;;;5049829;28;20172;-62
2022/11/08 13:11:53;;;;;;;;;;;17.40;99.90;;;;;;5049948;28;20152;-61
2022/11/08 13:14:21;;;;;;;17.95;7.32;;;17.50;99.90;;;;;;5041353;28;19980;-62
2022/11/08 13:17:23;;;;;;;13.40;5.88;;;17.40;99.90;;;;;;5033302;28;20132;-61
2022/11/08 13:20:03;;;;;;;15.27;6.20;;;17.40;99.90;;;;;;5006787;28;20587;-59
2022/11/08 13:22:32;;;;;;;22.15;6.38;;;17.40;99.90;;;;;;4991832;28;20185;-58